Time;durP1;ratioP1;P1;durP2;ratioP2;P2;SDS_P1;SDS_P2;PMS_P1;PMS_P2;Temp;Humidity;BMP_temperature;BMP_pressure;BME280_temperature;BME280_humidity;BME280_pressure;Samples;Min_cycle;Max_cycle;Signal;HPM_P1;HPM_P2
2022/08/25 00:00:31;;;;;;;4.25;2.80;;;20.50;1.00;;;;;;7376016;19;20007;-65
2022/08/25 00:03:01;;;;;;;5.07;3.15;;;20.50;1.00;;;;;;7357533;19;20615;-65
2022/08/25 00:05:34;;;;;;;2.85;2.50;;;20.60;1.00;;;;;;7359512;19;20014;-66
2022/08/25 00:08:06;;;;;;;3.10;2.80;;;20.60;1.00;;;;;;7360192;19;20011;-66
2022/08/25 00:10:41;;;;;;;3.10;2.80;;;20.60;1.00;;;;;;7358214;19;20011;-66
2022/08/25 00:13:11;;;;;;;3.33;2.88;;;20.50;1.00;;;;;;7357916;19;20019;-66
2022/08/25 00:15:41;;;;;;;4.70;3.40;;;20.50;1.00;;;;;;7382674;19;20889;-66
2022/08/25 00:18:11;;;;;;;4.15;2.97;;;20.50;1.00;;;;;;7360148;19;20052;-66
2022/08/25 00:20:49;;;;;;;4.03;3.17;;;20.50;1.00;;;;;;7357583;19;20006;-65
2022/08/25 00:23:19;;;;;;;5.60;3.15;;;20.50;1.00;;;;;;7356920;19;20010;-66
2022/08/25 00:25:52;;;;;;;4.35;3.60;;;20.60;1.00;;;;;;7359490;19;20019;-66
2022/08/25 00:28:22;;;;;;;6.47;3.72;;;20.50;1.00;;;;;;7360670;19;20030;-66
2022/08/25 00:30:52;;;;;;;3.75;3.22;;;20.40;1.00;;;;;;7356090;19;20101;-66
2022/08/25 00:33:22;;;;;;;3.90;2.92;;;20.40;1.00;;;;;;7377253;19;20505;-66
2022/08/25 00:35:53;;;;;;;4.20;3.10;;;20.30;1.00;;;;;;7360151;19;20018;-65
2022/08/25 00:38:23;;;;;;;3.85;2.75;;;20.20;1.00;;;;;;7365344;19;20006;-65
2022/08/25 00:41:07;;;;;;;4.43;3.35;;;20.30;1.00;;;;;;7363344;19;20013;-65
2022/08/25 00:43:44;;;;;;;3.58;3.20;;;20.20;1.00;;;;;;7365678;19;20474;-66
2022/08/25 00:46:17;;;;;;;3.63;3.05;;;20.20;1.00;;;;;;7367198;19;20049;-66
2022/08/25 00:48:52;;;;;;;5.20;3.33;;;20.10;1.00;;;;;;7365785;19;20538;-65
2022/08/25 00:51:29;;;;;;;3.83;3.05;;;20.20;1.00;;;;;;7378483;19;20186;-65
2022/08/25 00:53:59;;;;;;;4.85;3.20;;;20.20;1.00;;;;;;7365953;19;20016;-66
2022/08/25 00:56:33;;;;;;;4.05;3.13;;;20.30;1.00;;;;;;7365252;19;20010;-64
2022/08/25 00:59:04;;;;;;;;;;;20.40;1.00;;;;;;7366738;19;20050;-66
2022/08/25 01:01:34;;;;;;;3.58;3.22;;;20.20;1.00;;;;;;7358112;19;19922;-66
2022/08/25 01:04:06;;;;;;;3.83;3.20;;;20.00;1.00;;;;;;7366132;19;20021;-65
2022/08/25 01:06:40;;;;;;;3.65;2.75;;;19.90;1.00;;;;;;7387514;19;20534;-65
2022/08/25 01:09:10;;;;;;;3.42;3.08;;;19.80;1.00;;;;;;7365736;19;20006;-65
2022/08/25 01:11:44;;;;;;;5.32;3.30;;;19.70;1.00;;;;;;7357976;19;20017;-65
2022/08/25 01:14:17;;;;;;;5.32;3.20;;;19.70;1.00;;;;;;7364791;19;20119;-66
2022/08/25 01:16:47;;;;;;;4.97;3.53;;;19.60;1.00;;;;;;7365920;19;20109;-66
2022/08/25 01:19:23;;;;;;;3.90;3.40;;;19.60;1.00;;;;;;7365549;19;20185;-66
2022/08/25 01:21:56;;;;;;;5.95;3.63;;;19.60;1.00;;;;;;7358743;19;20481;-66
2022/08/25 01:24:30;;;;;;;3.75;3.33;;;19.50;1.00;;;;;;7387504;19;20010;-65
2022/08/25 01:27:01;;;;;;;7.18;3.50;;;19.50;1.00;;;;;;7363590;19;20078;-65
2022/08/25 01:29:32;;;;;;;6.88;3.90;;;19.50;1.00;;;;;;7365441;19;20014;-65
2022/08/25 01:32:04;;;;;;;10.60;3.80;;;19.40;1.00;;;;;;7357038;19;20011;-66
2022/08/25 01:34:39;;;;;;;6.78;3.90;;;19.40;1.00;;;;;;7364526;19;20485;-65
2022/08/25 01:37:14;;;;;;;4.53;3.65;;;19.40;1.00;;;;;;7363595;19;20077;-66
2022/08/25 01:39:45;;;;;;;6.63;3.70;;;19.50;1.00;;;;;;7365565;19;20017;-66
2022/08/25 01:42:25;;;;;;;6.25;3.75;;;19.50;1.00;;;;;;7379149;19;20098;-65
2022/08/25 01:44:56;;;;;;;5.68;3.95;;;19.50;1.00;;;;;;7364542;19;20043;-65
2022/08/25 01:47:26;;;;;;;4.68;3.55;;;19.50;1.00;;;;;;7363543;19;20366;-65
2022/08/25 01:49:56;;;;;;;4.03;3.63;;;19.50;1.00;;;;;;7364367;19;20011;-65
2022/08/25 01:52:34;;;;;;;6.22;3.65;;;19.60;1.00;;;;;;7358553;19;20007;-65
2022/08/25 01:55:03;;;;;;;4.95;3.55;;;19.50;1.00;;;;;;7364917;19;20085;-66
2022/08/25 01:57:33;;;;;;;4.97;3.63;;;19.40;1.00;;;;;;7384880;19;20478;-66
2022/08/25 02:00:03;;;;;;;5.32;3.72;;;19.50;1.00;;;;;;7361666;19;20033;-66
2022/08/25 02:02:33;;;;;;;8.15;3.90;;;19.40;1.00;;;;;;7357389;19;20030;-66
2022/08/25 02:05:05;;;;;;;5.68;3.83;;;19.40;1.00;;;;;;7365016;19;20022;-65
2022/08/25 02:07:38;;;;;;;7.60;3.88;;;19.30;1.00;;;;;;7363503;19;20307;-65
2022/08/25 02:10:09;;;;;;;5.85;3.30;;;19.30;1.00;;;;;;7360130;19;20016;-65
2022/08/25 02:12:39;;;;;;;4.07;3.45;;;19.30;1.00;;;;;;7380580;19;20070;-65
2022/08/25 02:15:11;;;;;;;6.55;4.20;;;19.30;1.00;;;;;;7363868;19;20007;-65
2022/08/25 02:17:40;;;;;;;4.55;4.07;;;19.40;1.00;;;;;;7363291;19;20469;-65
2022/08/25 02:20:11;;;;;;;7.32;4.00;;;19.40;1.00;;;;;;7361230;19;20017;-66
2022/08/25 02:22:44;;;;;;;8.00;4.55;;;19.40;1.00;;;;;;7357854;19;20479;-65
2022/08/25 02:25:25;;;;;;;5.25;4.20;;;19.40;1.00;;;;;;7364668;19;20017;-65
2022/08/25 02:27:55;;;;;;;8.30;4.30;;;19.30;1.00;;;;;;7361968;19;20030;-66
2022/08/25 02:30:25;;;;;;;6.30;4.47;;;19.30;1.00;;;;;;7381485;19;20010;-65
2022/08/25 02:32:56;;;;;;;6.78;4.43;;;19.20;1.00;;;;;;7356361;19;20006;-65
2022/08/25 02:35:26;;;;;;;5.28;4.13;;;19.30;1.00;;;;;;7363069;19;20474;-66
2022/08/25 02:37:58;;;;;;;5.15;4.13;;;19.20;1.00;;;;;;7362771;19;20023;-66
2022/08/25 02:40:29;;;;;;;8.68;5.38;;;19.10;1.00;;;;;;7360065;19;20013;-66
2022/08/25 02:42:59;;;;;;;6.43;4.85;;;19.20;1.00;;;;;;7356563;19;20601;-64
2022/08/25 02:45:28;;;;;;;8.82;5.32;;;19.20;1.00;;;;;;7384829;19;20375;-65
2022/08/25 02:47:58;;;;;;;5.68;4.60;;;19.30;1.00;;;;;;7362562;19;20484;-66
2022/08/25 02:50:28;;;;;;;7.53;5.07;;;19.30;1.00;;;;;;7359223;19;20017;-66
2022/08/25 02:53:01;;;;;;;6.00;4.57;;;19.30;1.00;;;;;;7356552;19;20010;-66
2022/08/25 02:55:31;;;;;;;6.25;4.85;;;19.20;1.00;;;;;;7363478;19;20014;-66
2022/08/25 02:58:03;;;;;;;5.88;4.43;;;19.10;1.00;;;;;;7363239;19;20036;-65
2022/08/25 03:00:33;;;;;;;6.82;4.75;;;19.10;1.00;;;;;;7380080;19;20043;-66
2022/08/25 03:03:04;;;;;;;6.97;4.80;;;19.00;1.00;;;;;;7355441;19;20624;-66
2022/08/25 03:05:34;;;;;;;5.78;4.55;;;19.00;1.00;;;;;;7362544;19;20011;-65
2022/08/25 03:08:09;;;;;;;5.18;4.50;;;18.90;1.00;;;;;;7362419;19;20002;-65
2022/08/25 03:10:39;;;;;;;6.18;4.60;;;18.90;1.00;;;;;;7358930;19;20018;-65
2022/08/25 03:13:09;;;;;;;6.07;4.55;;;18.90;1.00;;;;;;7355477;19;20010;-65
2022/08/25 03:15:41;;;;;;;5.20;4.63;;;18.90;1.00;;;;;;7383876;19;20221;-64
2022/08/25 03:18:11;;;;;;;6.80;4.75;;;18.80;1.00;;;;;;7362919;19;20010;-65
2022/08/25 03:20:43;;;;;;;6.50;4.53;;;18.90;1.00;;;;;;7359014;19;20034;-65
2022/08/25 03:23:16;;;;;;;6.35;4.95;;;18.90;1.00;;;;;;7355456;19;20056;-66
2022/08/25 03:28:32;;;;;;;5.03;4.22;;;18.90;1.00;;;;;;7360083;19;20035;-65
2022/08/25 03:31:03;;;;;;;11.77;5.15;;;18.90;1.00;;;;;;7358493;19;20023;-65
2022/08/25 03:33:33;;;;;;;7.55;5.32;;;18.80;1.00;;;;;;7378610;19;20082;-65
2022/08/25 03:36:04;;;;;;;4.43;3.92;;;18.80;1.00;;;;;;7361432;19;20121;-66
2022/08/25 03:38:37;;;;;;;6.55;5.18;;;18.80;1.00;;;;;;7361744;19;20042;-65
2022/08/25 03:41:14;;;;;;;5.73;4.80;;;18.80;1.00;;;;;;7358604;19;20021;-65
2022/08/25 03:43:45;;;;;;;8.07;4.82;;;18.80;1.00;;;;;;7361028;19;20496;-66
2022/08/25 03:46:21;;;;;;;6.38;5.10;;;18.80;1.00;;;;;;7361134;19;20097;-66
2022/08/25 03:48:51;;;;;;;;;;;18.80;1.00;;;;;;7362286;19;20086;-65
2022/08/25 03:51:23;;;;;;;5.97;4.72;;;18.70;1.00;;;;;;7373974;19;19915;-65
2022/08/25 03:53:56;;;;;;;10.23;4.78;;;18.60;1.40;;;;;;7360184;19;20508;-65
2022/08/25 03:56:26;;;;;;;5.95;4.82;;;18.60;2.10;;;;;;7360406;19;20041;-66
2022/08/25 03:58:57;;;;;;;5.18;4.30;;;18.60;1.90;;;;;;7360417;19;20056;-66
2022/08/25 04:01:28;;;;;;;7.45;4.63;;;18.60;2.10;;;;;;7352022;19;20013;-66
2022/08/25 04:03:57;;;;;;;6.28;4.75;;;18.50;2.50;;;;;;7359935;19;20509;-66
2022/08/25 04:06:27;;;;;;;7.60;5.05;;;18.50;2.70;;;;;;7380830;19;20107;-66
2022/08/25 04:09:00;;;;;;;7.05;5.05;;;18.40;2.80;;;;;;7360336;19;20090;-64
2022/08/25 04:11:30;;;;;;;6.25;4.63;;;18.40;2.90;;;;;;7353899;19;20006;-65
2022/08/25 04:14:01;;;;;;;6.30;5.07;;;18.40;3.10;;;;;;7365982;19;20018;-66
2022/08/25 04:16:34;;;;;;;6.43;5.38;;;18.30;3.30;;;;;;7367302;19;20015;-66
2022/08/25 04:19:08;;;;;;;6.85;5.35;;;18.40;3.70;;;;;;7368012;19;20366;-66
2022/08/25 04:21:39;;;;;;;8.00;5.32;;;18.40;4.20;;;;;;7380928;19;20010;-66
2022/08/25 04:24:13;;;;;;;7.50;5.50;;;18.40;4.20;;;;;;7364719;19;20430;-66
2022/08/25 04:26:46;;;;;;;6.95;5.35;;;18.40;4.20;;;;;;7365110;19;20773;-65
2022/08/25 04:29:18;;;;;;;7.63;5.05;;;18.40;4.40;;;;;;7366509;19;20340;-65
2022/08/25 04:31:52;;;;;;;6.88;5.75;;;18.50;4.40;;;;;;7358565;19;20147;-65
2022/08/25 04:34:25;;;;;;;7.57;5.55;;;18.50;3.90;;;;;;7367383;19;20466;-65
2022/08/25 04:37:02;;;;;;;8.70;5.65;;;18.40;5.40;;;;;;7365063;19;20019;-65
2022/08/25 04:39:35;;;;;;;7.72;5.40;;;18.40;4.90;;;;;;7388798;19;20014;-65
2022/08/25 04:42:06;;;;;;;5.40;4.90;;;18.40;5.20;;;;;;7357998;19;20007;-65
2022/08/25 04:44:36;;;;;;;6.85;5.30;;;18.40;4.70;;;;;;7365689;19;20081;-65
2022/08/25 04:47:06;;;;;;;7.88;5.40;;;18.40;6.00;;;;;;7366579;19;20013;-65
2022/08/25 04:49:37;;;;;;;6.15;5.28;;;18.50;5.30;;;;;;7366392;19;20167;-65
2022/08/25 04:52:07;;;;;;;8.88;5.65;;;18.80;3.60;;;;;;7357381;19;20015;-65
2022/08/25 04:54:45;;;;;;;10.18;5.60;;;19.70;1.00;;;;;;7379254;19;20014;-66
2022/08/25 04:57:15;;;;;;;9.10;5.55;;;20.30;1.00;;;;;;7385976;19;20014;-64
2022/08/25 04:59:45;;;;;;;6.93;5.57;;;20.80;1.00;;;;;;7365019;19;20073;-65
2022/08/25 05:02:15;;;;;;;8.68;5.18;;;20.70;1.00;;;;;;7357470;19;20006;-66
2022/08/25 05:04:45;;;;;;;7.68;5.15;;;21.30;1.00;;;;;;7364662;19;20014;-66
2022/08/25 05:07:15;;;;;;;6.53;5.40;;;21.40;1.00;;;;;;7363135;19;20557;-65
2022/08/25 05:09:47;;;;;;;7.50;5.00;;;22.30;1.00;;;;;;7365576;19;20102;-66
2022/08/25 05:12:19;;;;;;;8.80;5.22;;;22.50;1.00;;;;;;7378393;19;20014;-66
2022/08/25 05:14:48;;;;;;;8.25;5.80;;;22.90;1.00;;;;;;7364992;19;20070;-65
2022/08/25 05:17:18;;;;;;;6.97;4.97;;;23.40;1.00;;;;;;7364488;19;20021;-65
2022/08/25 05:19:51;;;;;;;8.07;5.32;;;23.90;1.00;;;;;;7363708;19;20540;-66
2022/08/25 05:22:21;;;;;;;6.97;5.35;;;24.00;1.00;;;;;;7356686;19;20011;-65
2022/08/25 05:24:53;;;;;;;7.32;5.82;;;24.30;1.00;;;;;;7365421;19;20082;-66
2022/08/25 05:27:23;;;;;;;9.02;5.78;;;24.10;1.00;;;;;;7385548;19;20010;-66
2022/08/25 05:29:53;;;;;;;8.02;5.85;;;24.40;1.00;;;;;;7363498;19;20563;-66
2022/08/25 05:32:23;;;;;;;9.63;6.40;;;24.30;1.00;;;;;;7356592;19;20043;-65
2022/08/25 05:34:53;;;;;;;8.07;6.70;;;24.40;1.00;;;;;;7365194;19;20398;-65
2022/08/25 05:37:23;;;;;;;8.88;6.50;;;24.30;1.00;;;;;;7363484;19;20038;-65
2022/08/25 05:39:55;;;;;;;8.38;6.05;;;24.20;1.00;;;;;;7363499;19;20086;-65
2022/08/25 05:42:26;;;;;;;8.45;7.05;;;23.30;1.00;;;;;;7379694;19;20030;-65
2022/08/25 05:44:56;;;;;;;11.10;6.90;;;21.70;1.00;;;;;;7363334;19;20466;-65
2022/08/25 05:47:26;;;;;;;9.55;6.72;;;21.10;1.00;;;;;;7361931;19;20018;-65
2022/08/25 05:49:55;;;;;;;8.27;6.15;;;20.80;1.00;;;;;;7362188;19;20015;-65
2022/08/25 05:52:29;;;;;;;9.82;7.30;;;20.60;1.00;;;;;;7357224;19;20010;-65
2022/08/25 05:55:02;;;;;;;9.27;6.97;;;20.50;1.00;;;;;;7363183;19;20490;-65
2022/08/25 05:57:32;;;;;;;8.95;6.70;;;20.50;1.00;;;;;;7383578;19;20006;-64
2022/08/25 06:00:02;;;;;;;9.30;7.15;;;20.50;1.00;;;;;;7361642;19;20010;-65
2022/08/25 06:02:43;;;;;;;7.93;6.47;;;20.40;1.00;;;;;;7356386;19;20010;-65
2022/08/25 06:05:16;;;;;;;9.35;7.00;;;20.60;1.00;;;;;;7363812;19;20377;-65
2022/08/25 06:07:46;;;;;;;9.23;6.78;;;20.70;1.00;;;;;;7362124;19;20011;-65
2022/08/25 06:10:19;;;;;;;7.75;6.47;;;20.70;1.00;;;;;;7360553;19;20014;-65
2022/08/25 06:12:50;;;;;;;9.15;7.03;;;20.90;1.00;;;;;;7355823;19;20343;-66
2022/08/25 06:15:23;;;;;;;9.15;7.10;;;20.80;1.00;;;;;;7384543;19;20007;-66
2022/08/25 06:17:56;;;;;;;8.20;6.90;;;21.00;1.00;;;;;;7362355;19;20011;-65
2022/08/25 06:20:33;;;;;;;9.68;7.25;;;21.10;1.00;;;;;;7358363;19;20014;-65
2022/08/25 06:23:03;;;;;;;9.75;7.03;;;21.30;1.00;;;;;;7355987;19;20010;-65
2022/08/25 06:25:35;;;;;;;8.00;6.60;;;21.30;1.00;;;;;;7362036;19;20011;-65
2022/08/25 06:28:06;;;;;;;10.35;7.15;;;21.20;1.00;;;;;;7361252;19;20130;-66
2022/08/25 06:30:36;;;;;;;8.40;6.43;;;21.20;1.00;;;;;;7378775;19;20348;-65
2022/08/25 06:33:06;;;;;;;9.13;7.55;;;21.30;1.00;;;;;;7353575;19;20025;-65
2022/08/25 06:35:36;;;;;;;9.48;6.90;;;21.30;1.00;;;;;;7358562;19;20007;-64
2022/08/25 06:38:06;;;;;;;8.55;6.72;;;21.40;1.00;;;;;;7361639;19;20037;-65
2022/08/25 06:40:39;;;;;;;10.18;5.95;;;21.50;1.00;;;;;;7358421;19;20073;-64
2022/08/25 06:43:09;;;;;;;9.05;6.47;;;21.70;1.00;;;;;;7354244;19;20082;-64
2022/08/25 06:45:39;;;;;;;12.52;7.00;;;21.70;1.00;;;;;;7383191;19;20022;-65
2022/08/25 06:48:09;;;;;;;8.00;6.07;;;22.00;1.00;;;;;;7361133;19;20078;-65
2022/08/25 06:50:41;;;;;;;7.65;6.53;;;22.10;1.00;;;;;;7357067;19;20024;-65
2022/08/25 06:53:11;;;;;;;8.57;6.57;;;22.00;1.00;;;;;;7354900;19;20011;-65
2022/08/25 06:55:43;;;;;;;7.03;5.82;;;21.90;1.00;;;;;;7360285;19;20086;-65
2022/08/25 06:58:13;;;;;;;8.23;6.32;;;22.30;1.00;;;;;;7361229;19;20017;-65
2022/08/25 07:00:43;;;;;;;9.90;6.45;;;22.20;1.00;;;;;;7376191;19;20162;-69
2022/08/25 07:03:13;;;;;;;7.95;5.78;;;22.40;1.00;;;;;;7376041;19;20049;-65
2022/08/25 07:05:43;;;;;;;8.82;6.00;;;22.60;1.00;;;;;;7359911;19;20136;-65
2022/08/25 07:08:13;;;;;;;9.95;6.20;;;22.50;1.00;;;;;;7358233;19;20020;-65
2022/08/25 07:10:46;;;;;;;7.15;6.05;;;22.60;1.00;;;;;;7357664;19;20011;-65
2022/08/25 07:13:17;;;;;;;10.40;6.32;;;22.70;1.00;;;;;;7351946;19;20011;-65
2022/08/25 07:15:47;;;;;;;7.90;6.32;;;22.70;1.00;;;;;;7360227;19;20635;-65
2022/08/25 07:18:17;;;;;;;10.68;6.25;;;22.90;1.00;;;;;;7380485;19;20010;-64
2022/08/25 07:20:47;;;;;;;7.78;6.00;;;23.10;1.00;;;;;;7356815;19;20019;-66
2022/08/25 07:23:17;;;;;;;7.03;5.70;;;23.20;1.00;;;;;;7353778;19;20014;-65
2022/08/25 07:25:49;;;;;;;8.80;5.63;;;23.20;1.00;;;;;;7360423;19;20049;-65
2022/08/25 07:28:19;;;;;;;7.07;6.03;;;23.10;1.00;;;;;;7359616;19;20010;-66
2022/08/25 07:30:50;;;;;;;7.78;5.93;;;23.00;1.00;;;;;;7357594;19;20096;-66
2022/08/25 07:33:20;;;;;;;8.27;5.47;;;23.20;1.00;;;;;;7374607;19;20018;-65
2022/08/25 07:35:48;;;;;;;7.60;5.70;;;23.10;1.00;;;;;;7359147;19;20086;-65
2022/08/25 07:38:20;;;;;;;6.60;5.68;;;23.60;1.00;;;;;;7358896;19;20036;-66
2022/08/25 07:40:53;;;;;;;5.95;5.22;;;23.70;1.00;;;;;;7356730;19;20015;-66
2022/08/25 07:43:25;;;;;;;7.00;4.97;;;23.80;1.00;;;;;;7352932;19;20010;-65
2022/08/25 07:45:55;;;;;;;9.23;5.53;;;23.70;1.00;;;;;;7362458;19;20081;-65
2022/08/25 07:48:25;;;;;;;6.20;5.00;;;23.60;1.00;;;;;;7387774;19;20021;-65
2022/08/25 07:50:55;;;;;;;10.38;7.88;;;23.60;1.00;;;;;;7361366;19;20010;-66
2022/08/25 07:53:25;;;;;;;8.40;5.40;;;23.90;1.00;;;;;;7358908;19;20014;-65
2022/08/25 07:55:57;;;;;;;6.18;5.43;;;24.20;1.00;;;;;;7366644;19;20015;-66
2022/08/25 07:58:27;;;;;;;6.50;5.00;;;24.10;1.00;;;;;;7366269;19;20038;-65
2022/08/25 08:00:57;;;;;;;6.32;5.65;;;24.20;1.00;;;;;;7363684;19;20007;-65
2022/08/25 08:03:28;;;;;;;10.77;5.63;;;24.20;1.00;;;;;;7381540;19;20305;-65
2022/08/25 08:06:16;;;;;;;8.15;5.30;;;24.10;1.00;;;;;;7366236;19;20006;-65
2022/08/25 08:08:48;;;;;;;7.93;5.53;;;24.30;1.00;;;;;;7365754;19;20011;-65
2022/08/25 08:11:24;;;;;;;6.75;5.50;;;24.10;1.00;;;;;;7358360;19;20002;-64
2022/08/25 08:13:55;;;;;;;9.10;4.95;;;24.00;1.00;;;;;;7366019;19;20027;-66
2022/08/25 08:16:28;;;;;;;5.88;5.28;;;24.20;1.00;;;;;;7367676;19;20010;-65
2022/08/25 08:18:59;;;;;;;5.25;4.75;;;24.30;1.00;;;;;;7367069;19;20019;-66
2022/08/25 08:21:31;;;;;;;6.47;5.85;;;24.30;1.00;;;;;;7380575;19;20014;-65
2022/08/25 08:24:02;;;;;;;6.13;5.35;;;24.40;1.00;;;;;;7365713;19;20015;-65
2022/08/25 08:26:46;;;;;;;7.38;5.85;;;24.70;1.00;;;;;;7364207;19;20015;-65
2022/08/25 08:29:28;;;;;;;6.38;5.03;;;24.50;1.00;;;;;;7365935;19;20011;-65
2022/08/25 08:32:00;;;;;;;6.20;5.13;;;24.80;1.00;;;;;;7357249;19;20015;-66
2022/08/25 08:34:30;;;;;;;8.15;5.93;;;24.60;1.00;;;;;;7365873;19;20010;-65
2022/08/25 08:37:01;;;;;;;7.15;5.80;;;24.80;1.00;;;;;;7364540;19;20015;-66
2022/08/25 08:39:31;;;;;;;8.50;5.50;;;25.10;1.00;;;;;;7388517;19;20022;-66
2022/08/25 08:42:21;;;;;;;6.72;5.32;;;25.40;1.00;;;;;;7356983;19;20021;-65
2022/08/25 08:45:02;;;;;;;6.85;5.50;;;24.60;1.00;;;;;;7365581;19;20010;-66
2022/08/25 08:47:51;;;;;;;6.93;5.28;;;24.90;1.00;;;;;;7366107;19;20081;-66
2022/08/25 08:50:30;;;;;;;6.45;5.13;;;25.30;1.00;;;;;;7363600;19;20548;-65
2022/08/25 08:53:08;;;;;;;10.23;6.07;;;25.40;1.00;;;;;;7359863;19;20010;-65
2022/08/25 08:55:42;;;;;;;8.20;5.90;;;25.10;1.00;;;;;;7363891;19;20011;-64
2022/08/25 08:58:21;;;;;;;6.78;4.85;;;25.30;1.00;;;;;;7365691;19;20029;-66
2022/08/25 09:00:58;;;;;;;7.10;5.30;;;25.30;1.00;;;;;;7363350;19;20018;-64
2022/08/25 09:03:34;;;;;;;6.40;5.10;;;25.40;1.00;;;;;;7381476;19;20022;-65
2022/08/25 09:06:13;;;;;;;7.15;5.82;;;25.90;1.00;;;;;;7362266;19;20466;-66
2022/08/25 09:08:44;;;;;;;7.88;5.80;;;26.10;1.00;;;;;;7365601;19;20018;-66
2022/08/25 09:11:22;;;;;;;5.65;4.72;;;25.80;1.00;;;;;;7358101;19;20086;-66
2022/08/25 09:14:10;;;;;;;6.68;4.65;;;25.90;1.00;;;;;;7365075;19;20053;-66
2022/08/25 09:16:58;;;;;;;10.05;4.93;;;25.80;1.00;;;;;;7365192;19;20007;-65
2022/08/25 09:19:48;;;;;;;5.10;4.60;;;25.80;1.00;;;;;;7361379;19;20018;-66
2022/08/25 09:22:30;;;;;;;4.75;4.30;;;25.80;1.00;;;;;;7357172;19;20474;-66
2022/08/25 09:25:12;;;;;;;5.18;4.32;;;26.10;1.00;;;;;;7365346;19;20089;-66
2022/08/25 09:28:00;;;;;;;8.10;4.57;;;26.30;1.00;;;;;;7363286;19;20014;-66
2022/08/25 09:30:46;;;;;;;6.60;5.03;;;26.20;1.00;;;;;;7384671;19;20014;-66
2022/08/25 09:33:20;;;;;;;4.82;4.32;;;26.30;1.00;;;;;;7358437;19;20098;-66
2022/08/25 09:35:52;;;;;;;5.35;4.28;;;26.80;1.00;;;;;;7361231;19;20011;-66
2022/08/25 09:38:22;;;;;;;4.50;4.10;;;26.50;1.00;;;;;;7363388;19;20021;-66
2022/08/25 09:40:55;;;;;;;5.38;4.88;;;26.80;1.00;;;;;;7359268;19;20011;-65
2022/08/25 09:43:32;;;;;;;5.53;4.60;;;27.00;1.00;;;;;;7358406;19;20510;-66
2022/08/25 09:46:12;;;;;;;5.82;5.18;;;27.20;1.00;;;;;;7363878;19;20821;-66
2022/08/25 09:48:48;;;;;;;5.47;4.35;;;27.30;1.00;;;;;;7385293;19;20030;-65
2022/08/25 09:51:29;;;;;;;4.97;4.20;;;27.20;1.00;;;;;;7356103;19;20018;-66
2022/08/25 09:54:19;;;;;;;5.22;4.72;;;27.00;1.00;;;;;;7362162;19;20470;-66
2022/08/25 09:56:56;;;;;;;7.97;4.30;;;26.60;1.00;;;;;;7361862;19;20017;-66
2022/08/25 09:59:27;;;;;;;5.72;4.20;;;26.70;1.00;;;;;;7364874;19;20015;-65
2022/08/25 10:02:14;;;;;;;5.25;4.60;;;26.80;1.00;;;;;;7353243;19;20010;-65
2022/08/25 10:04:44;;;;;;;4.45;4.05;;;27.30;1.00;;;;;;7362621;19;20006;-66
2022/08/25 10:07:25;;;;;;;6.60;4.20;;;27.80;1.00;;;;;;7362340;19;20007;-67
2022/08/25 10:09:58;;;;;;;6.95;5.32;;;27.70;1.00;;;;;;7361947;19;20365;-66
2022/08/25 10:12:37;;;;;;;6.03;4.20;;;27.50;1.00;;;;;;7377193;19;20011;-66
2022/08/25 10:15:19;;;;;;;5.18;3.95;;;27.90;1.00;;;;;;7361793;19;20010;-66
2022/08/25 10:18:21;;;;;;;5.05;4.20;;;27.60;1.00;;;;;;7361546;19;20021;-65
2022/08/25 10:21:08;;;;;;;6.07;4.15;;;27.60;1.00;;;;;;7359251;19;20036;-65
2022/08/25 10:23:43;;;;;;;5.55;4.40;;;27.70;1.00;;;;;;7359399;19;20021;-65
2022/08/25 10:26:23;;;;;;;5.32;3.88;;;27.70;1.00;;;;;;7360723;19;20018;-67
2022/08/25 10:29:04;;;;;;;5.20;4.05;;;27.20;1.00;;;;;;7361477;19;20007;-66
2022/08/25 10:31:40;;;;;;;4.65;4.05;;;27.60;1.00;;;;;;7350149;19;20502;-66
2022/08/25 10:34:26;;;;;;;4.35;3.95;;;27.70;1.00;;;;;;7362629;19;20123;-66
2022/08/25 10:37:05;;;;;;;7.53;4.35;;;27.70;1.00;;;;;;7365494;19;20014;-66
2022/08/25 10:39:43;;;;;;;6.05;4.78;;;27.60;1.00;;;;;;7388876;19;20042;-67
2022/08/25 10:42:35;;;;;;;6.55;4.50;;;27.90;1.00;;;;;;7355319;19;20031;-66
2022/08/25 10:48:21;;;;;;;8.55;4.60;;;28.30;1.00;;;;;;7364694;19;20034;-66
2022/08/25 10:51:00;;;;;;;7.28;4.38;;;28.50;1.00;;;;;;7334441;19;20097;-66
2022/08/25 10:53:42;;;;;;;6.07;4.28;;;28.70;1.00;;;;;;7377555;19;20088;-66
2022/08/25 10:56:16;;;;;;;5.15;3.97;;;28.50;1.00;;;;;;7363060;19;20089;-67
2022/08/25 10:59:21;;;;;;;5.70;4.00;;;28.70;1.00;;;;;;7364486;19;20051;-66
2022/08/25 11:02:23;;;;;;;5.90;3.53;;;29.00;1.00;;;;;;7355276;19;20043;-66
2022/08/25 11:04:59;;;;;;;4.25;3.75;;;28.60;1.00;;;;;;7364775;19;20318;-66
2022/08/25 11:07:37;;;;;;;5.10;4.13;;;28.60;1.00;;;;;;7361276;19;20010;-65
2022/08/25 11:10:12;;;;;;;5.53;4.18;;;28.80;1.00;;;;;;7360576;19;20502;-66
2022/08/25 11:12:46;;;;;;;5.38;4.13;;;28.50;1.00;;;;;;7359419;19;20512;-66
2022/08/25 11:15:24;;;;;;;5.80;4.20;;;28.70;1.00;;;;;;7366022;19;20006;-66
2022/08/25 11:17:58;;;;;;;5.10;4.10;;;28.10;1.00;;;;;;7362901;19;20078;-66
2022/08/25 11:20:37;;;;;;;4.72;4.00;;;28.30;1.00;;;;;;7382576;19;20351;-66
2022/08/25 11:23:16;;;;;;;5.47;4.28;;;27.90;1.00;;;;;;7357678;19;20021;-65
2022/08/25 11:25:49;;;;;;;5.10;4.03;;;28.20;1.00;;;;;;7364963;19;20019;-66
2022/08/25 11:28:28;;;;;;;6.43;4.32;;;28.70;1.00;;;;;;7364526;19;20007;-67
2022/08/25 11:31:01;;;;;;;5.70;4.10;;;28.50;1.00;;;;;;7373423;19;20450;-66
2022/08/25 11:33:32;;;;;;;6.45;4.20;;;28.30;1.00;;;;;;7346738;19;20389;-66
2022/08/25 11:36:07;;;;;;;5.63;4.43;;;28.70;1.00;;;;;;7362317;19;20099;-66
2022/08/25 11:38:57;;;;;;;4.57;4.03;;;28.90;1.00;;;;;;7365903;19;20035;-65
2022/08/25 11:41:37;;;;;;;3.80;3.40;;;29.00;1.00;;;;;;7355613;19;20021;-66
2022/08/25 11:44:19;;;;;;;5.30;3.80;;;28.80;1.00;;;;;;7365262;19;20014;-67
2022/08/25 11:47:07;;;;;;;5.45;3.95;;;28.70;1.00;;;;;;7383277;19;20375;-66
2022/08/25 11:49:55;;;;;;;4.43;3.90;;;28.40;1.00;;;;;;7259534;19;2004263;-68
2022/08/25 11:52:47;;;;;;;5.43;3.95;;;28.30;1.00;;;;;;7379523;19;20003;-67
2022/08/25 11:55:28;;;;;;;4.00;3.60;;;28.30;1.00;;;;;;7365570;19;20006;-66
2022/08/25 11:58:30;;;;;;;5.57;3.80;;;28.40;1.00;;;;;;7363891;19;20022;-67
2022/08/25 12:01:01;;;;;;;4.57;3.83;;;28.90;1.00;;;;;;7360997;19;20022;-67
2022/08/25 12:03:53;;;;;;;4.00;3.60;;;28.90;1.00;;;;;;7358467;19;20007;-66
2022/08/25 12:06:28;;;;;;;7.70;3.80;;;28.70;1.00;;;;;;7363541;19;20003;-67
2022/08/25 12:09:22;;;;;;;4.88;3.78;;;28.70;1.00;;;;;;7365305;19;20010;-66
2022/08/25 12:11:57;;;;;;;5.15;3.80;;;29.30;1.00;;;;;;7353503;19;20021;-66
2022/08/25 12:14:44;;;;;;;5.15;3.67;;;29.40;1.00;;;;;;7363102;19;20017;-65
2022/08/25 12:17:38;;;;;;;4.95;3.67;;;29.30;1.00;;;;;;7359343;19;20081;-65
2022/08/25 12:20:09;;;;;;;5.57;3.90;;;29.20;1.00;;;;;;7360512;19;20014;-66
2022/08/25 12:23:00;;;;;;;3.53;3.22;;;29.20;1.00;;;;;;7376457;19;20025;-65
2022/08/25 12:25:50;;;;;;;7.70;4.07;;;29.20;1.00;;;;;;7363387;19;20021;-66
2022/08/25 12:28:53;;;;;;;4.05;3.50;;;29.50;1.00;;;;;;7363000;19;20007;-66
2022/08/25 12:31:33;;;;;;;4.70;3.97;;;29.30;1.00;;;;;;7353340;19;20601;-66
2022/08/25 12:34:18;;;;;;;4.10;3.30;;;29.10;1.00;;;;;;7365793;19;20367;-66
2022/08/25 12:37:00;;;;;;;3.80;3.00;;;29.20;1.00;;;;;;7367129;19;20011;-66
2022/08/25 12:39:38;;;;;;;4.72;3.38;;;28.90;1.00;;;;;;7365996;19;20062;-66
2022/08/25 12:42:24;;;;;;;3.65;3.35;;;29.20;1.00;;;;;;7361811;19;20009;-66
2022/08/25 12:45:31;;;;;;;5.13;3.33;;;29.30;1.00;;;;;;7369091;19;20013;-66
2022/08/25 12:48:33;;;;;;;4.75;3.22;;;28.90;1.00;;;;;;7369886;19;20025;-66
2022/08/25 12:51:06;;;;;;;3.50;3.20;;;28.70;1.00;;;;;;7361410;19;20014;-66
2022/08/25 12:53:40;;;;;;;6.38;3.30;;;28.70;1.00;;;;;;7369372;19;20074;-66
2022/08/25 12:56:20;;;;;;;4.97;3.10;;;28.70;1.00;;;;;;7369405;19;20107;-66
2022/08/25 12:58:52;;;;;;;5.07;3.35;;;28.60;1.00;;;;;;7391687;19;20015;-64
2022/08/25 13:01:41;;;;;;;3.80;3.45;;;28.40;1.00;;;;;;7358829;19;20010;-65
2022/08/25 13:04:33;;;;;;;4.40;3.33;;;28.30;1.00;;;;;;7367074;19;20006;-65
2022/08/25 13:07:20;;;;;;;5.15;3.90;;;28.60;1.00;;;;;;7366708;19;20502;-66
2022/08/25 13:10:14;;;;;;;5.18;3.38;;;28.80;1.00;;;;;;7368169;19;20010;-65
2022/08/25 13:12:50;;;;;;;6.82;3.40;;;29.30;1.00;;;;;;7362977;19;20026;-66
2022/08/25 13:15:30;;;;;;;3.10;2.80;;;29.40;1.00;;;;;;7368122;19;20387;-65
2022/08/25 13:18:20;;;;;;;4.50;2.97;;;29.40;1.00;;;;;;7368778;19;20021;-66
2022/08/25 13:20:54;;;;;;;3.30;2.88;;;29.60;1.00;;;;;;7366086;19;20015;-66
2022/08/25 13:23:29;;;;;;;4.68;3.15;;;29.40;1.00;;;;;;7363788;19;20017;-65
2022/08/25 13:26:00;;;;;;;4.30;3.17;;;29.30;1.00;;;;;;7368946;19;20022;-68
2022/08/25 13:28:32;;;;;;;5.15;3.10;;;29.70;1.00;;;;;;7389719;19;20355;-66
2022/08/25 13:31:06;;;;;;;2.83;2.45;;;29.70;1.00;;;;;;7363009;19;20010;-65
2022/08/25 13:33:39;;;;;;;8.68;3.53;;;29.60;1.00;;;;;;7363926;19;20007;-65
2022/08/25 13:39:13;;;;;;;3.33;2.90;;;29.20;1.00;;;;;;7367423;19;20015;-67
2022/08/25 13:41:49;;;;;;;4.55;3.30;;;29.50;1.00;;;;;;7359332;19;20002;-66
2022/08/25 13:44:26;;;;;;;4.20;3.08;;;29.50;1.00;;;;;;7363779;19;20459;-65
2022/08/25 13:47:08;;;;;;;3.00;2.70;;;29.70;1.00;;;;;;7365536;19;20025;-65